createdAt,value
2022-11-04T00:00:47.055Z,13.13
2022-11-04T00:01:49.474Z,13.18
2022-11-04T00:02:51.174Z,13.20
2022-11-04T00:03:54.165Z,13.24
2022-11-04T00:04:55.693Z,13.31
2022-11-04T00:06:00.866Z,13.36
2022-11-04T00:07:22.363Z,13.33
2022-11-04T00:08:23.939Z,13.31
2022-11-04T00:09:28.636Z,13.34
2022-11-04T00:10:48.315Z,13.37
2022-11-04T00:12:08.986Z,13.43
2022-11-04T00:13:10.784Z,13.22
2022-11-04T00:14:13.841Z,13.16
2022-11-04T00:15:53.540Z,13.17
2022-11-04T00:17:13.565Z,13.21
2022-11-04T00:18:15.317Z,13.16
2022-11-04T00:19:17.302Z,12.94
2022-11-04T00:20:50.987Z,12.81
2022-11-04T00:22:11.490Z,12.60
2022-11-04T00:23:31.300Z,12.61
2022-11-04T00:24:45.245Z,12.53
2022-11-04T00:26:05.234Z,12.38
2022-11-04T00:27:36.798Z,12.21
2022-11-04T00:28:44.038Z,12.14
2022-11-04T00:29:45.634Z,12.14
2022-11-04T00:30:47.226Z,12.12
2022-11-04T00:32:07.038Z,12.07
2022-11-04T00:33:26.467Z,12.11
2022-11-04T00:34:27.999Z,12.15
2022-11-04T00:35:29.549Z,12.14
2022-11-04T00:36:31.091Z,12.13
2022-11-04T00:37:32.697Z,12.20
2022-11-04T00:38:34.213Z,12.30
2022-11-04T00:39:35.785Z,12.38
2022-11-04T00:40:37.290Z,12.42
2022-11-04T00:41:38.813Z,12.46
2022-11-04T00:42:40.814Z,12.48
2022-11-04T00:43:42.589Z,12.51
2022-11-04T00:44:44.115Z,12.52
2022-11-04T00:45:45.731Z,12.52
2022-11-04T00:46:47.231Z,12.53
2022-11-04T00:47:48.744Z,12.55
2022-11-04T00:48:50.370Z,12.63
2022-11-04T00:49:51.911Z,12.63
2022-11-04T00:50:53.434Z,12.64
2022-11-04T00:51:55.075Z,12.65
2022-11-04T00:53:00.762Z,12.67
2022-11-04T00:54:02.295Z,12.60
2022-11-04T00:55:04.679Z,12.61
2022-11-04T00:56:06.414Z,12.63
2022-11-04T00:58:33.723Z,12.69
2022-11-04T00:59:35.300Z,12.68
2022-11-04T01:00:38.026Z,12.68
2022-11-04T01:01:39.717Z,12.70
2022-11-04T01:02:41.378Z,12.69
2022-11-04T01:03:43.495Z,12.70
2022-11-04T01:04:46.889Z,12.73
2022-11-04T01:05:48.802Z,12.72
2022-11-04T01:06:50.368Z,12.72
2022-11-04T01:07:51.913Z,12.74
2022-11-04T01:09:02.385Z,12.76
2022-11-04T01:10:05.434Z,12.79
2022-11-04T01:11:08.961Z,12.80
2022-11-04T01:12:10.531Z,12.79
2022-11-04T01:13:12.466Z,12.78
2022-11-04T01:14:14.538Z,12.77
2022-11-04T01:15:16.189Z,12.80
2022-11-04T01:16:18.748Z,12.81
2022-11-04T01:17:20.313Z,12.78
2022-11-04T01:18:21.849Z,12.67
2022-11-04T01:19:23.437Z,12.53
2022-11-04T01:20:25.012Z,12.36
2022-11-04T01:21:26.530Z,12.18
2022-11-04T01:22:28.091Z,12.06
2022-11-04T01:23:29.767Z,12.08
2022-11-04T01:24:31.295Z,12.10
2022-11-04T01:25:32.839Z,12.18
2022-11-04T01:26:34.686Z,12.25
2022-11-04T01:27:36.232Z,12.28
2022-11-04T01:28:37.786Z,12.21
2022-11-04T01:29:39.362Z,12.22
2022-11-04T01:30:40.893Z,12.24
2022-11-04T01:31:42.482Z,12.23
2022-11-04T01:32:44.046Z,12.25
2022-11-04T01:33:45.551Z,12.22
2022-11-04T01:34:47.094Z,12.13
2022-11-04T01:35:48.605Z,12.10
2022-11-04T01:36:50.141Z,12.13
2022-11-04T01:37:51.733Z,12.13
2022-11-04T01:38:56.077Z,12.13
2022-11-04T01:39:57.612Z,12.16
2022-11-04T01:40:59.607Z,12.08
2022-11-04T01:42:01.256Z,12.07
2022-11-04T01:43:02.864Z,12.10
2022-11-04T01:44:42.567Z,12.11
2022-11-04T01:45:51.919Z,12.06
2022-11-04T01:46:54.414Z,12.02
2022-11-04T01:48:05.698Z,11.98
2022-11-04T01:49:27.299Z,12.06
2022-11-04T01:50:32.303Z,12.11
2022-11-04T01:51:37.575Z,12.15
2022-11-04T01:52:48.849Z,12.20
2022-11-04T01:53:52.140Z,12.00
2022-11-04T01:54:56.035Z,11.79
2022-11-04T01:56:00.113Z,11.87
2022-11-04T01:57:06.178Z,11.90
2022-11-04T01:58:13.629Z,11.85
2022-11-04T01:59:28.405Z,11.89
2022-11-04T02:00:30.274Z,11.94
2022-11-04T02:01:31.973Z,11.81
2022-11-04T02:02:35.887Z,11.80
2022-11-04T02:03:54.465Z,11.78
2022-11-04T02:04:56.854Z,11.78
2022-11-04T02:05:59.594Z,11.85
2022-11-04T02:07:05.893Z,11.86
2022-11-04T02:08:09.347Z,11.97
2022-11-04T02:09:11.562Z,12.00
2022-11-04T02:10:13.361Z,12.02
2022-11-04T02:11:35.137Z,12.09
2022-11-04T02:12:51.760Z,12.14
2022-11-04T02:13:53.310Z,12.16
2022-11-04T02:14:55.954Z,12.12
2022-11-04T02:16:09.394Z,12.01
2022-11-04T02:17:20.078Z,11.87
2022-11-04T02:18:29.325Z,11.77
2022-11-04T02:19:52.828Z,11.76
2022-11-04T02:21:35.816Z,11.79
2022-11-04T02:23:17.807Z,11.77
2022-11-04T02:24:25.134Z,11.66
2022-11-04T02:25:51.470Z,11.67
2022-11-04T02:26:55.856Z,11.65
2022-11-04T02:28:00.333Z,11.62
2022-11-04T02:29:22.271Z,11.65
2022-11-04T02:30:24.046Z,11.39
2022-11-04T02:31:42.887Z,11.30
2022-11-04T02:33:02.837Z,11.36
2022-11-04T02:34:18.325Z,11.44
2022-11-04T02:35:42.774Z,11.52
2022-11-04T02:36:58.779Z,11.55
2022-11-04T02:38:22.009Z,11.62
2022-11-04T02:39:36.696Z,11.62
2022-11-04T02:40:47.026Z,11.63
2022-11-04T02:42:13.298Z,11.69
2022-11-04T02:43:20.938Z,11.74
2022-11-04T02:44:41.932Z,11.77
2022-11-04T02:46:03.027Z,11.73
2022-11-04T02:47:09.472Z,11.61
2022-11-04T02:48:35.427Z,11.61
2022-11-04T02:49:48.905Z,11.58
2022-11-04T02:51:22.589Z,11.48
2022-11-04T02:52:41.053Z,11.43
2022-11-04T02:53:48.678Z,11.41
2022-11-04T02:54:58.574Z,11.40
2022-11-04T02:56:02.439Z,11.44
2022-11-04T02:57:08.062Z,11.45
2022-11-04T02:58:15.925Z,11.41
2022-11-04T02:59:29.339Z,11.33
2022-11-04T03:00:32.107Z,11.31
2022-11-04T03:01:37.959Z,11.32
2022-11-04T03:02:55.506Z,11.34
2022-11-04T03:04:04.590Z,11.31
2022-11-04T03:05:12.448Z,11.28
2022-11-04T03:06:17.414Z,11.30
2022-11-04T03:07:27.334Z,11.35
2022-11-04T03:08:47.444Z,11.29
2022-11-04T03:09:54.489Z,11.25
2022-11-04T03:11:06.740Z,11.27
2022-11-04T03:12:14.968Z,11.26
2022-11-04T03:13:21.712Z,11.24
2022-11-04T03:14:37.452Z,11.17
2022-11-04T03:15:41.425Z,11.24
2022-11-04T03:16:50.180Z,11.18
2022-11-04T03:18:07.162Z,11.02
2022-11-04T03:19:16.204Z,11.02
2022-11-04T03:20:23.743Z,11.09
2022-11-04T03:21:27.321Z,11.13
2022-11-04T03:22:33.200Z,11.11
2022-11-04T03:23:35.668Z,11.01
2022-11-04T03:24:37.933Z,11.02
2022-11-04T03:25:45.936Z,11.08
2022-11-04T03:26:55.967Z,11.17
2022-11-04T03:28:36.164Z,11.24
2022-11-04T03:29:53.556Z,11.22
2022-11-04T03:31:01.649Z,11.16
2022-11-04T03:32:17.837Z,11.07
2022-11-04T03:33:27.880Z,11.14
2022-11-04T03:34:30.480Z,11.17
2022-11-04T03:35:32.562Z,11.16
2022-11-04T03:36:36.028Z,11.13
2022-11-04T03:37:37.548Z,11.08
2022-11-04T03:38:39.424Z,11.04
2022-11-04T03:39:41.154Z,11.05
2022-11-04T03:40:42.917Z,10.91
2022-11-04T03:41:49.466Z,10.79
2022-11-04T03:43:07.031Z,10.73
2022-11-04T03:44:08.875Z,10.71
2022-11-04T03:45:11.380Z,10.76
2022-11-04T03:46:13.150Z,10.75
2022-11-04T03:47:15.039Z,10.77
2022-11-04T03:48:16.846Z,10.78
2022-11-04T03:49:19.588Z,10.78
2022-11-04T03:50:33.545Z,10.80
2022-11-04T03:51:35.044Z,10.78
2022-11-04T03:52:36.911Z,10.73
2022-11-04T03:53:38.576Z,10.77
2022-11-04T03:54:40.180Z,10.81
2022-11-04T03:55:59.698Z,10.81
2022-11-04T03:57:04.171Z,10.79
2022-11-04T03:58:18.300Z,10.61
2022-11-04T03:59:38.053Z,10.44
2022-11-04T04:00:48.884Z,10.29
2022-11-04T04:01:56.244Z,10.11
2022-11-04T04:03:15.909Z,10.06
2022-11-04T04:04:23.386Z,9.92
2022-11-04T04:05:30.693Z,9.84
2022-11-04T04:06:35.875Z,9.99
2022-11-04T04:07:48.424Z,10.07
2022-11-04T04:08:55.422Z,9.87
2022-11-04T04:10:39.139Z,9.82
2022-11-04T04:11:52.588Z,9.68
2022-11-04T04:12:59.990Z,9.56
2022-11-04T04:14:40.546Z,9.53
2022-11-04T04:15:52.690Z,9.51
2022-11-04T04:16:57.036Z,9.50
2022-11-04T04:18:04.875Z,9.62
2022-11-04T04:19:14.044Z,9.76
2022-11-04T04:20:23.858Z,9.89
2022-11-04T04:21:34.644Z,10.00
2022-11-04T04:22:42.407Z,10.08
2022-11-04T04:24:05.381Z,10.16
2022-11-04T04:25:28.456Z,10.23
2022-11-04T04:26:52.484Z,10.28
2022-11-04T04:27:57.225Z,10.38
2022-11-04T04:29:03.088Z,10.42
2022-11-04T04:30:12.164Z,10.46
2022-11-04T04:31:36.186Z,10.51
2022-11-04T04:32:43.846Z,10.53
2022-11-04T04:33:45.399Z,10.54
2022-11-04T04:34:47.039Z,10.53
2022-11-04T04:35:55.535Z,10.52
2022-11-04T04:37:12.144Z,10.53
2022-11-04T04:38:41.726Z,10.54
2022-11-04T04:40:22.188Z,10.56
2022-11-04T04:41:49.982Z,10.49
2022-11-04T04:43:11.815Z,10.44
2022-11-04T04:44:41.443Z,10.34
2022-11-04T04:45:50.943Z,10.30
2022-11-04T04:46:54.762Z,10.36
2022-11-04T04:47:56.656Z,10.37
2022-11-04T04:49:09.149Z,10.39
2022-11-04T04:50:14.215Z,10.36
2022-11-04T04:51:16.186Z,10.36
2022-11-04T04:52:18.082Z,10.32
2022-11-04T04:53:19.700Z,10.30
2022-11-04T04:54:21.200Z,10.09
2022-11-04T04:55:22.691Z,10.05
2022-11-04T04:56:24.215Z,10.11
2022-11-04T04:57:26.291Z,10.14
2022-11-04T04:58:27.858Z,9.98
2022-11-04T04:59:29.378Z,10.02
2022-11-04T05:00:31.101Z,10.08
2022-11-04T05:01:33.078Z,10.11
2022-11-04T05:02:34.992Z,10.15
2022-11-04T05:03:44.857Z,10.21
2022-11-04T05:04:46.740Z,10.10
2022-11-04T05:05:48.315Z,10.00
2022-11-04T05:06:52.136Z,9.89
2022-11-04T05:07:53.656Z,9.90
2022-11-04T05:08:55.393Z,9.85
2022-11-04T05:09:57.874Z,9.88
2022-11-04T05:10:59.506Z,9.95
2022-11-04T05:12:01.078Z,10.05
2022-11-04T05:13:28.448Z,10.10
2022-11-04T05:14:30.501Z,10.17
2022-11-04T05:15:34.116Z,10.25
2022-11-04T05:16:40.636Z,10.31
2022-11-04T05:17:42.608Z,10.37
2022-11-04T05:18:44.224Z,10.41
2022-11-04T05:19:45.774Z,10.44
2022-11-04T05:20:47.321Z,10.46
2022-11-04T05:21:48.875Z,10.49
2022-11-04T05:22:50.515Z,10.52
2022-11-04T05:23:52.066Z,10.59
2022-11-04T05:24:53.587Z,10.60
2022-11-04T05:25:58.695Z,10.63
2022-11-04T05:27:00.228Z,10.66
2022-11-04T05:28:02.303Z,10.66
2022-11-04T05:29:04.076Z,10.65
2022-11-04T05:30:06.539Z,10.64
2022-11-04T05:31:08.664Z,10.62
2022-11-04T05:32:10.199Z,10.59
2022-11-04T05:33:12.254Z,10.60
2022-11-04T05:34:14.266Z,10.59
2022-11-04T05:35:15.781Z,10.60
2022-11-04T05:36:17.460Z,10.48
2022-11-04T05:37:18.949Z,10.52
2022-11-04T05:38:20.461Z,10.55
2022-11-04T05:39:22.074Z,10.60
2022-11-04T05:40:24.344Z,10.64
2022-11-04T05:41:26.099Z,10.68
2022-11-04T05:42:27.782Z,10.63
2022-11-04T05:43:29.402Z,10.60
2022-11-04T05:44:30.911Z,10.58
2022-11-04T05:45:32.435Z,10.58
2022-11-04T05:46:33.946Z,10.58
2022-11-04T05:47:35.461Z,10.49
2022-11-04T05:48:40.529Z,10.53
2022-11-04T05:49:42.387Z,10.62
2022-11-04T05:50:43.919Z,10.68
2022-11-04T05:51:45.506Z,10.75
2022-11-04T05:52:47.159Z,10.79
2022-11-04T05:53:48.727Z,10.74
2022-11-04T05:54:50.254Z,10.62
2022-11-04T05:55:51.790Z,10.60
2022-11-04T05:56:53.510Z,10.53
2022-11-04T05:57:55.249Z,10.64
2022-11-04T05:58:56.880Z,10.72
2022-11-04T05:59:58.648Z,10.78
2022-11-04T06:01:32.184Z,10.83
2022-11-04T06:02:33.911Z,10.82
2022-11-04T06:03:35.488Z,10.86
2022-11-04T06:04:37.007Z,10.89
2022-11-04T06:05:38.555Z,10.88
2022-11-04T06:06:40.645Z,10.87
2022-11-04T06:07:42.263Z,10.95
2022-11-04T06:08:45.252Z,11.06
2022-11-04T06:09:46.987Z,11.19
2022-11-04T06:10:48.510Z,11.30
2022-11-04T06:11:50.021Z,11.41
2022-11-04T06:12:51.570Z,11.49
2022-11-04T06:13:54.783Z,11.60
2022-11-04T06:14:56.366Z,11.67
2022-11-04T06:15:57.967Z,11.73
2022-11-04T06:17:00.953Z,11.77
2022-11-04T06:18:02.516Z,11.79
2022-11-04T06:19:08.627Z,11.81
2022-11-04T06:20:13.649Z,11.84
2022-11-04T06:21:15.730Z,11.89
2022-11-04T06:22:19.630Z,11.93
2022-11-04T06:23:21.147Z,11.92
2022-11-04T06:24:22.874Z,11.95
2022-11-04T06:25:24.396Z,11.95
2022-11-04T06:26:28.630Z,11.91
2022-11-04T06:27:30.350Z,11.71
2022-11-04T06:28:32.260Z,11.65
2022-11-04T06:29:33.946Z,11.60
2022-11-04T06:30:35.755Z,11.73
2022-11-04T06:31:37.753Z,11.79
2022-11-04T06:32:39.270Z,11.87
2022-11-04T06:33:40.958Z,11.88
2022-11-04T06:34:42.581Z,11.76
2022-11-04T06:35:44.081Z,11.63
2022-11-04T06:36:45.623Z,11.75
2022-11-04T06:37:47.155Z,11.85
2022-11-04T06:38:48.693Z,11.92
2022-11-04T06:39:50.222Z,11.89
2022-11-04T06:40:52.222Z,11.99
2022-11-04T06:41:55.503Z,12.14
2022-11-04T06:42:59.492Z,12.17
2022-11-04T06:44:01.145Z,11.96
2022-11-04T06:45:02.768Z,11.82
2022-11-04T06:46:04.685Z,11.74
2022-11-04T06:47:06.218Z,11.78
2022-11-04T06:48:07.769Z,11.84
2022-11-04T06:49:20.417Z,11.75
2022-11-04T06:50:22.047Z,11.61
2022-11-04T06:51:24.185Z,11.74
2022-11-04T06:52:25.945Z,11.95
2022-11-04T06:53:29.158Z,12.14
2022-11-04T06:54:30.740Z,12.35
2022-11-04T06:55:32.263Z,12.41
2022-11-04T06:56:33.819Z,12.18
2022-11-04T06:57:35.364Z,12.06
2022-11-04T06:58:36.871Z,12.19
2022-11-04T06:59:38.393Z,12.35
2022-11-04T07:00:40.041Z,12.56
2022-11-04T07:01:41.873Z,12.75
2022-11-04T07:02:43.793Z,12.82
2022-11-04T07:03:50.307Z,12.70
2022-11-04T07:04:52.015Z,12.65
2022-11-04T07:05:53.900Z,12.56
2022-11-04T07:06:55.418Z,12.70
2022-11-04T07:07:57.009Z,12.88
2022-11-04T07:09:00.622Z,13.10
2022-11-04T07:10:02.139Z,13.23
2022-11-04T07:11:04.284Z,13.28
2022-11-04T07:12:05.989Z,13.22
2022-11-04T07:13:07.636Z,13.24
2022-11-04T07:14:09.946Z,13.43
2022-11-04T07:15:12.273Z,13.54
2022-11-04T07:16:13.991Z,13.46
2022-11-04T07:17:15.514Z,13.47
2022-11-04T07:18:17.050Z,13.49
2022-11-04T07:19:19.111Z,13.34
2022-11-04T07:20:20.638Z,13.40
2022-11-04T07:21:22.834Z,13.60
2022-11-04T07:22:24.373Z,13.80
2022-11-04T07:23:26.214Z,13.91
2022-11-04T07:24:27.741Z,13.87
2022-11-04T07:25:30.022Z,13.56
2022-11-04T07:26:31.623Z,13.57
2022-11-04T07:27:33.242Z,13.18
2022-11-04T07:28:35.348Z,13.32
2022-11-04T07:29:37.281Z,13.58
2022-11-04T07:30:38.816Z,13.89
2022-11-04T07:31:40.319Z,14.08
2022-11-04T07:32:41.867Z,14.12
2022-11-04T07:33:43.625Z,14.07
2022-11-04T07:34:45.127Z,14.07
2022-11-04T07:35:46.652Z,14.22
2022-11-04T07:36:48.189Z,14.08
2022-11-04T07:37:49.785Z,14.34
2022-11-04T07:38:51.354Z,14.41
2022-11-04T07:39:53.010Z,14.22
2022-11-04T07:40:54.606Z,14.07
2022-11-04T07:41:59.493Z,14.27
2022-11-04T07:43:01.655Z,14.49
2022-11-04T07:44:05.490Z,14.65
2022-11-04T07:45:07.429Z,14.85
2022-11-04T07:46:13.878Z,15.18
2022-11-04T07:47:15.979Z,15.40
2022-11-04T07:48:17.590Z,15.47
2022-11-04T07:49:19.166Z,15.45
2022-11-04T07:50:20.765Z,15.40
2022-11-04T07:51:23.557Z,15.40
2022-11-04T07:52:25.592Z,15.41
2022-11-04T07:53:28.815Z,15.57
2022-11-04T07:54:30.328Z,15.50
2022-11-04T07:55:31.851Z,15.08
2022-11-04T07:56:33.511Z,14.98
2022-11-04T07:57:35.072Z,15.10
2022-11-04T07:58:36.615Z,15.19
2022-11-04T07:59:38.214Z,15.43
2022-11-04T08:00:39.766Z,15.58
2022-11-04T08:01:41.398Z,15.73
2022-11-04T08:02:47.082Z,15.96
2022-11-04T08:03:50.140Z,16.16
2022-11-04T08:04:51.678Z,16.03
2022-11-04T08:06:01.359Z,16.05
2022-11-04T08:07:03.195Z,16.21
2022-11-04T08:08:05.079Z,16.29
2022-11-04T08:09:06.799Z,16.03
2022-11-04T08:10:10.155Z,15.81
2022-11-04T08:11:17.628Z,15.80
2022-11-04T08:12:22.094Z,15.77
2022-11-04T08:13:27.366Z,16.01
2022-11-04T08:14:28.903Z,16.28
2022-11-04T08:15:30.521Z,16.46
2022-11-04T08:16:34.453Z,16.36
2022-11-04T08:17:36.255Z,16.29
2022-11-04T08:18:38.045Z,16.34
2022-11-04T08:19:39.901Z,16.38
2022-11-04T08:20:41.467Z,16.59
2022-11-04T08:21:43.004Z,16.81
2022-11-04T08:22:44.494Z,16.97
2022-11-04T08:23:47.759Z,16.90
2022-11-04T08:24:49.354Z,16.78
2022-11-04T08:25:50.924Z,16.81
2022-11-04T08:26:52.579Z,16.97
2022-11-04T08:27:59.647Z,17.12
2022-11-04T08:29:06.643Z,17.21
2022-11-04T08:30:08.924Z,17.26
2022-11-04T08:31:25.521Z,17.41
2022-11-04T08:32:28.263Z,16.97
2022-11-04T08:33:32.416Z,16.76
2022-11-04T08:34:34.472Z,16.91
2022-11-04T08:35:40.913Z,17.08
2022-11-04T08:36:42.854Z,17.18
2022-11-04T08:37:44.383Z,17.15
2022-11-04T08:38:46.177Z,17.33
2022-11-04T08:39:47.823Z,17.46
2022-11-04T08:40:49.445Z,17.63
2022-11-04T08:41:52.266Z,17.71
2022-11-04T08:42:54.882Z,17.70
2022-11-04T08:44:00.752Z,17.68
2022-11-04T08:45:02.330Z,17.79
2022-11-04T08:46:09.017Z,17.85
2022-11-04T08:47:10.559Z,17.94
2022-11-04T08:48:13.586Z,18.15
2022-11-04T08:49:20.688Z,18.31
2022-11-04T08:50:27.744Z,18.25
2022-11-04T08:51:32.235Z,18.21
2022-11-04T08:52:34.346Z,18.24
2022-11-04T08:53:35.960Z,18.31
2022-11-04T08:54:37.570Z,18.39
2022-11-04T08:55:39.269Z,18.51
2022-11-04T08:56:41.717Z,18.57
2022-11-04T08:57:43.252Z,18.61
2022-11-04T08:58:45.231Z,18.74
2022-11-04T08:59:46.781Z,18.84
2022-11-04T09:00:48.399Z,18.89
2022-11-04T09:01:50.025Z,18.74
2022-11-04T09:02:51.872Z,18.77
2022-11-04T09:03:53.992Z,18.86
2022-11-04T09:04:55.551Z,19.02
2022-11-04T09:05:58.138Z,19.16
2022-11-04T09:07:06.907Z,19.26
2022-11-04T09:08:09.567Z,19.02
2022-11-04T09:09:14.382Z,18.84
2022-11-04T09:10:16.004Z,18.66
2022-11-04T09:11:18.398Z,18.69
2022-11-04T09:12:20.485Z,18.78
2022-11-04T09:13:22.139Z,18.93
2022-11-04T09:14:23.875Z,19.04
2022-11-04T09:15:25.457Z,19.11
2022-11-04T09:16:28.139Z,19.18
2022-11-04T09:17:29.655Z,19.32
2022-11-04T09:18:32.443Z,19.38
2022-11-04T09:19:33.997Z,19.32
2022-11-04T09:20:38.515Z,19.25
2022-11-04T09:21:40.170Z,19.21
2022-11-04T09:22:45.760Z,19.24
2022-11-04T09:23:47.707Z,19.36
2022-11-04T09:24:49.246Z,19.41
2022-11-04T09:25:50.774Z,19.44
2022-11-04T09:26:52.296Z,19.49
2022-11-04T09:27:53.954Z,19.63
2022-11-04T09:28:57.868Z,19.66
2022-11-04T09:29:59.663Z,19.67
2022-11-04T09:31:05.426Z,19.69
2022-11-04T09:32:08.695Z,19.73
2022-11-04T09:33:10.515Z,19.85
2022-11-04T09:34:12.297Z,19.95
2022-11-04T09:35:16.234Z,19.95
2022-11-04T09:36:17.893Z,19.82
2022-11-04T09:37:19.421Z,19.80
2022-11-04T09:38:20.951Z,19.92
2022-11-04T09:39:23.515Z,20.03
2022-11-04T09:40:25.840Z,20.20
2022-11-04T09:41:54.471Z,20.43
2022-11-04T09:43:07.521Z,20.57
2022-11-04T09:44:15.352Z,20.68
2022-11-04T09:45:23.231Z,20.63
2022-11-04T09:46:26.071Z,20.70
2022-11-04T09:47:33.420Z,20.85
2022-11-04T09:48:49.240Z,21.03
2022-11-04T09:49:55.198Z,21.03
2022-11-04T09:51:01.202Z,20.80
2022-11-04T09:52:17.383Z,20.88
2022-11-04T09:53:28.445Z,21.03
2022-11-04T09:54:55.103Z,21.12
2022-11-04T09:56:19.521Z,20.99
2022-11-04T09:57:21.243Z,20.94
2022-11-04T09:58:22.966Z,20.87
2022-11-04T09:59:27.814Z,20.91
2022-11-04T10:00:35.838Z,21.02
2022-11-04T10:01:46.580Z,21.16
2022-11-04T10:03:06.531Z,21.19
2022-11-04T10:04:20.137Z,21.20
2022-11-04T10:05:50.938Z,21.32
2022-11-04T10:06:58.499Z,21.35
2022-11-04T10:08:18.435Z,21.33
2022-11-04T10:09:52.064Z,21.39
2022-11-04T10:11:06.639Z,21.33
2022-11-04T10:12:23.338Z,21.41
2022-11-04T10:13:57.072Z,21.38
2022-11-04T10:15:26.424Z,21.33
2022-11-04T10:17:02.177Z,21.24
2022-11-04T10:18:26.146Z,21.26
2022-11-04T10:19:46.262Z,21.40
2022-11-04T10:21:21.638Z,21.45
2022-11-04T10:22:36.330Z,21.44
2022-11-04T10:23:53.812Z,21.50
2022-11-04T10:25:13.557Z,21.44
2022-11-04T10:26:20.747Z,21.33
2022-11-04T10:27:36.386Z,21.30
2022-11-04T10:28:43.817Z,21.38
2022-11-04T10:30:15.752Z,21.54
2022-11-04T10:31:18.996Z,21.47
2022-11-04T10:32:32.511Z,21.34
2022-11-04T10:34:04.653Z,21.41
2022-11-04T10:35:22.373Z,21.34
2022-11-04T10:36:26.162Z,21.33
2022-11-04T10:37:28.850Z,21.33
2022-11-04T10:38:50.880Z,21.37
2022-11-04T10:40:01.419Z,21.38
2022-11-04T10:41:08.727Z,21.40
2022-11-04T10:42:17.393Z,21.51
2022-11-04T10:43:31.454Z,21.45
2022-11-04T10:44:35.471Z,21.37
2022-11-04T10:45:48.368Z,21.47
2022-11-04T10:47:15.306Z,21.54
2022-11-04T10:48:36.982Z,21.58
2022-11-04T10:50:00.219Z,21.58
2022-11-04T10:51:04.974Z,21.57
2022-11-04T10:52:07.938Z,21.52
2022-11-04T10:53:22.643Z,21.55
2022-11-04T10:54:26.913Z,21.59
2022-11-04T10:55:51.999Z,21.58
2022-11-04T10:56:55.551Z,21.68
2022-11-04T10:57:59.261Z,21.70
2022-11-04T10:59:27.661Z,21.82
2022-11-04T11:00:41.458Z,21.81
2022-11-04T11:01:51.120Z,21.73
2022-11-04T11:02:52.705Z,21.69
2022-11-04T11:03:55.215Z,21.71
2022-11-04T11:05:13.460Z,21.65
2022-11-04T11:06:36.071Z,21.66
2022-11-04T11:07:37.657Z,21.56
2022-11-04T11:08:39.522Z,21.39
2022-11-04T11:09:41.004Z,21.35
2022-11-04T11:10:51.844Z,21.46
2022-11-04T11:11:53.577Z,21.50
2022-11-04T11:13:04.662Z,21.51
2022-11-04T11:14:16.977Z,21.62
2022-11-04T11:15:32.871Z,21.64
2022-11-04T11:16:34.466Z,21.75
2022-11-04T11:17:38.510Z,21.79
2022-11-04T11:18:41.745Z,21.80
2022-11-04T11:19:51.059Z,21.85
2022-11-04T11:21:10.868Z,21.71
2022-11-04T11:22:31.624Z,21.66
2022-11-04T11:23:37.719Z,21.70
2022-11-04T11:24:39.241Z,21.64
2022-11-04T11:25:49.328Z,21.45
2022-11-04T11:26:54.982Z,21.45
2022-11-04T11:28:01.552Z,21.47
2022-11-04T11:29:11.576Z,21.47
2022-11-04T11:30:34.371Z,21.45
2022-11-04T11:31:40.805Z,21.54
2022-11-04T11:32:47.016Z,21.54
2022-11-04T11:33:53.201Z,21.48
2022-11-04T11:34:54.865Z,21.47
2022-11-04T11:36:01.538Z,21.51
2022-11-04T11:37:05.140Z,21.49
2022-11-04T11:38:18.905Z,21.53
2022-11-04T11:39:24.148Z,21.58
2022-11-04T11:40:32.002Z,21.58
2022-11-04T11:41:52.800Z,21.62
2022-11-04T11:42:55.979Z,21.72
2022-11-04T11:44:19.063Z,21.77
2022-11-04T11:45:23.595Z,21.82
2022-11-04T11:46:34.417Z,21.98
2022-11-04T11:47:38.552Z,22.06
2022-11-04T11:48:42.853Z,22.10
2022-11-04T11:49:44.631Z,22.11
2022-11-04T11:50:58.623Z,22.00
2022-11-04T11:52:36.977Z,21.93
2022-11-04T11:53:45.581Z,21.82
2022-11-04T11:54:50.689Z,21.93
2022-11-04T11:56:14.955Z,21.89
2022-11-04T11:57:44.830Z,21.84
2022-11-04T12:01:46.929Z,21.96
2022-11-04T12:03:03.800Z,21.95
2022-11-04T12:09:15.639Z,21.95
2022-11-04T12:10:56.421Z,22.04
2022-11-04T12:12:16.564Z,22.04
2022-11-04T12:13:30.134Z,22.06
2022-11-04T12:14:43.563Z,22.09
2022-11-04T12:16:15.972Z,22.03
2022-11-04T12:17:42.366Z,22.00
2022-11-04T12:19:15.810Z,21.95
2022-11-04T12:20:25.779Z,21.88
2022-11-04T12:21:35.277Z,21.90
2022-11-04T12:22:45.971Z,21.89
2022-11-04T12:24:01.257Z,21.93
2022-11-04T12:25:11.907Z,21.88
2022-11-04T12:26:13.414Z,21.91
2022-11-04T12:27:22.511Z,21.93
2022-11-04T12:29:02.026Z,21.98
2022-11-04T12:30:03.509Z,21.96
2022-11-04T12:31:30.251Z,21.95
2022-11-04T12:32:50.011Z,21.95
2022-11-04T12:34:09.950Z,21.84
2022-11-04T12:35:40.410Z,21.82
2022-11-04T12:36:50.570Z,21.82
2022-11-04T12:38:28.754Z,21.81
2022-11-04T12:39:48.980Z,21.71
2022-11-04T12:41:42.262Z,21.74
2022-11-04T12:43:20.110Z,21.57
2022-11-04T12:44:37.283Z,21.52
2022-11-04T12:45:59.040Z,21.44
2022-11-04T12:47:06.569Z,21.51
2022-11-04T12:48:12.617Z,21.47
2022-11-04T12:49:52.427Z,21.41
2022-11-04T12:51:32.414Z,21.35
2022-11-04T12:52:43.795Z,21.38
2022-11-04T12:54:17.804Z,21.36
2022-11-04T12:55:50.224Z,21.34
2022-11-04T12:57:12.845Z,21.33
2022-11-04T12:58:26.475Z,21.34
2022-11-04T12:59:43.918Z,21.35
2022-11-04T13:00:52.147Z,21.35
2022-11-04T13:02:01.878Z,21.33
2022-11-04T13:03:15.053Z,21.33
2022-11-04T13:04:40.980Z,21.37
2022-11-04T13:05:45.084Z,21.38
2022-11-04T13:06:53.981Z,21.33
2022-11-04T13:08:20.398Z,21.32
2022-11-04T13:09:38.499Z,21.25
2022-11-04T13:10:49.615Z,21.22
2022-11-04T13:11:56.105Z,21.19
2022-11-04T13:13:02.053Z,21.16
2022-11-04T13:14:16.119Z,21.17
2022-11-04T13:15:22.578Z,21.14
2022-11-04T13:16:24.297Z,21.23
2022-11-04T13:17:39.726Z,21.24
2022-11-04T13:18:41.756Z,21.18
2022-11-04T13:19:51.849Z,21.19
2022-11-04T13:21:12.437Z,21.21
2022-11-04T13:22:19.510Z,21.29
2022-11-04T13:23:29.024Z,21.26
2022-11-04T13:24:33.150Z,21.33
2022-11-04T13:25:43.470Z,21.34
2022-11-04T13:26:45.166Z,21.26
2022-11-04T13:27:48.275Z,21.22
2022-11-04T13:29:04.359Z,21.21
2022-11-04T13:30:22.214Z,21.17
2022-11-04T13:32:07.855Z,21.18
2022-11-04T13:33:17.638Z,21.18
2022-11-04T13:34:26.543Z,21.17
2022-11-04T13:35:44.499Z,21.10
2022-11-04T13:36:48.866Z,21.03
2022-11-04T13:37:59.524Z,21.03
2022-11-04T13:39:27.533Z,21.00
2022-11-04T13:40:42.572Z,20.92
2022-11-04T13:41:59.018Z,20.82
2022-11-04T13:43:39.716Z,20.95
2022-11-04T13:44:45.271Z,20.89
2022-11-04T13:45:52.855Z,20.88
2022-11-04T13:46:58.774Z,20.88
2022-11-04T13:48:00.603Z,20.89
2022-11-04T13:49:16.202Z,20.87
2022-11-04T13:50:56.156Z,20.85
2022-11-04T13:52:08.186Z,20.70
2022-11-04T13:53:11.737Z,20.73
2022-11-04T13:54:32.845Z,20.68
2022-11-04T13:55:35.911Z,20.71
2022-11-04T13:56:41.356Z,20.66
2022-11-04T13:57:54.475Z,20.62
2022-11-04T13:59:03.344Z,20.61
2022-11-04T14:00:20.747Z,20.64
2022-11-04T14:01:22.304Z,20.59
2022-11-04T14:02:25.768Z,20.49
2022-11-04T14:03:28.314Z,20.45
2022-11-04T14:04:31.534Z,20.50
2022-11-04T14:05:35.021Z,20.49
2022-11-04T14:06:48.509Z,20.40
2022-11-04T14:08:02.202Z,20.40
2022-11-04T14:09:35.485Z,20.38
2022-11-04T14:10:42.854Z,20.31
2022-11-04T14:12:20.154Z,20.31
2022-11-04T14:13:27.409Z,20.28
2022-11-04T14:14:29.154Z,20.25
2022-11-04T14:16:01.545Z,20.21
2022-11-04T14:17:07.391Z,20.20
2022-11-04T14:18:28.293Z,20.16
2022-11-04T14:19:48.309Z,20.15
2022-11-04T14:21:11.555Z,20.19
2022-11-04T14:22:17.690Z,20.19
2022-11-04T14:23:23.360Z,20.16
2022-11-04T14:24:28.738Z,20.15
2022-11-04T14:25:37.412Z,20.14
2022-11-04T14:26:44.737Z,20.15
2022-11-04T14:27:49.270Z,20.15
2022-11-04T14:29:02.306Z,20.15
2022-11-04T14:30:04.691Z,20.12
2022-11-04T14:31:17.106Z,20.10
2022-11-04T14:32:26.213Z,20.08
2022-11-04T14:33:51.830Z,20.09
2022-11-04T14:35:19.503Z,20.10
2022-11-04T14:36:20.980Z,20.10
2022-11-04T14:37:26.411Z,20.10
2022-11-04T14:38:32.680Z,20.09
2022-11-04T14:39:43.209Z,20.09
2022-11-04T14:40:52.386Z,20.10
2022-11-04T14:41:58.734Z,20.10
2022-11-04T14:43:00.515Z,20.12
2022-11-04T14:44:07.652Z,20.07
2022-11-04T14:45:16.571Z,20.06
2022-11-04T14:46:25.505Z,20.07
2022-11-04T14:47:33.096Z,20.05
2022-11-04T14:48:35.321Z,20.02
2022-11-04T14:50:05.730Z,19.99